Aviation Digital Data Service (ADDS)

Output produced by METARs form (1954 UTC 08 February 2023)
found at http://aviationweather.gov/metar/data/
 
METAR text: KMHR 081945Z E00000KT 10SM FEW250 13/05 A3038
Conditions at: KMHR (MATHER FIELD , CA, US) observed 1945 UTC 08 February 2023
Temperature: 13.0°C (55°F)
Dewpoint: 5.0°C (41°F) [RH = 58%]
Pressure (altimeter): 30.38 inches Hg (1028.9 mb)
Winds: calm
Visibility: 10 or more miles (16+ km)
Ceiling: at least 12,000 feet AGL
Clouds: few clouds at 25000 feet AGL
Weather: no significant weather observed at this time

METAR text: KMHR 081935Z 00000KT 10SM FEW250 13/06 A3038 RMK A01
Conditions at: KMHR (MATHER FIELD , CA, US) observed 1935 UTC 08 February 2023
Temperature: 13.0°C (55°F)
Dewpoint: 6.0°C (43°F) [RH = 62%]
Pressure (altimeter): 30.38 inches Hg (1028.9 mb)
Winds: calm
Visibility: 10 or more miles (16+ km)
Ceiling: at least 12,000 feet AGL
Clouds: few clouds at 25000 feet AGL
Weather: no significant weather observed at this time

METAR text: KMHR 081915Z AUTO 00000KT 10SM CLR 11/06 A3039 RMK A01
Conditions at: KMHR (MATHER FIELD , CA, US) observed 1915 UTC 08 February 2023
Temperature: 11.0°C (52°F)
Dewpoint: 6.0°C (43°F) [RH = 71%]
Pressure (altimeter): 30.39 inches Hg (1029.2 mb)
Winds: calm
Visibility: 10 or more miles (16+ km)
Ceiling: at least 12,000 feet AGL
Clouds: sky clear below 12,000 feet AGL
Weather: automated observation with no human augmentation;
there may or may not be significant weather present at this time

METAR text: KMHR 081855Z AUTO 26003KT 10SM CLR 10/06 A3039 RMK A01
Conditions at: KMHR (MATHER FIELD , CA, US) observed 1855 UTC 08 February 2023
Temperature: 10.0°C (50°F)
Dewpoint: 6.0°C (43°F) [RH = 76%]
Pressure (altimeter): 30.39 inches Hg (1029.2 mb)
Winds: from the W (260 degrees) at 3 MPH (3 knots; 1.5 m/s)
Visibility: 10 or more miles (16+ km)
Ceiling: at least 12,000 feet AGL
Clouds: sky clear below 12,000 feet AGL
Weather: automated observation with no human augmentation;
there may or may not be significant weather present at this time

Forecast for: KMHR (MATHER FIELD , CA, US)
Text: KMHR 081725Z 0818/0918 30004KT P6SM FEW250
Forecast period: 1800 UTC 08 February 2023 to 1200 UTC 09 February 2023
Forecast type: FROM: standard forecast or significant change
Winds: from the WNW (300 degrees) at 5 MPH (4 knots; 2.1 m/s)
Visibility: 6 or more miles (10+ km)
Ceiling: at least 12,000 feet AGL
Clouds: few clouds at 25000 feet AGL
Weather: no significant weather forecast for this period
Text: FM091200 VRB02KT 4SM BR FEW004 BKN250 AMD NOT SKED
Forecast period: 1200 to 1800 UTC 09 February 2023
Forecast type: FROM: standard forecast or significant change
Winds: variable direction winds at 2 MPH (2 knots; 1.0 m/s)
Visibility: 4 miles (6 km)
Ceiling: 25000 feet AGL
Clouds: few clouds at 400 feet AGL
broken clouds at 25000 feet AGL
Weather: BR  (mist)